sensor_id;sensor_type;location;lat;lon;timestamp;temperature;humidity
3134;DHT22;1577;49.912;10.924;2022-07-29T00:02:01;21.50;58.00
3134;DHT22;1577;49.912;10.924;2022-07-29T00:04:27;21.50;58.10
3134;DHT22;1577;49.912;10.924;2022-07-29T00:06:52;21.50;58.10
3134;DHT22;1577;49.912;10.924;2022-07-29T00:09:18;21.50;58.30
3134;DHT22;1577;49.912;10.924;2022-07-29T00:11:43;21.40;58.10
3134;DHT22;1577;49.912;10.924;2022-07-29T00:14:09;21.40;58.40
3134;DHT22;1577;49.912;10.924;2022-07-29T00:16:35;21.40;58.50
3134;DHT22;1577;49.912;10.924;2022-07-29T00:19:00;21.50;58.60
3134;DHT22;1577;49.912;10.924;2022-07-29T00:21:26;21.40;58.50
3134;DHT22;1577;49.912;10.924;2022-07-29T00:23:52;21.50;58.70
3134;DHT22;1577;49.912;10.924;2022-07-29T00:26:17;21.40;58.60
3134;DHT22;1577;49.912;10.924;2022-07-29T00:28:43;21.40;58.80
3134;DHT22;1577;49.912;10.924;2022-07-29T00:31:09;21.40;58.70
3134;DHT22;1577;49.912;10.924;2022-07-29T00:33:34;21.40;58.80
3134;DHT22;1577;49.912;10.924;2022-07-29T00:36:00;21.40;58.80
3134;DHT22;1577;49.912;10.924;2022-07-29T00:38:26;21.40;58.80
3134;DHT22;1577;49.912;10.924;2022-07-29T00:40:51;21.30;58.70
3134;DHT22;1577;49.912;10.924;2022-07-29T00:43:18;21.30;58.80
3134;DHT22;1577;49.912;10.924;2022-07-29T00:45:44;21.30;58.80
3134;DHT22;1577;49.912;10.924;2022-07-29T00:48:09;21.30;59.00
3134;DHT22;1577;49.912;10.924;2022-07-29T00:50:36;21.30;58.90
3134;DHT22;1577;49.912;10.924;2022-07-29T00:53:03;21.30;58.90
3134;DHT22;1577;49.912;10.924;2022-07-29T00:55:30;21.30;58.90
3134;DHT22;1577;49.912;10.924;2022-07-29T00:57:57;21.30;59.00
3134;DHT22;1577;49.912;10.924;2022-07-29T01:00:25;21.30;58.90
3134;DHT22;1577;49.912;10.924;2022-07-29T01:02:51;21.30;59.00
3134;DHT22;1577;49.912;10.924;2022-07-29T01:05:19;21.30;59.00
3134;DHT22;1577;49.912;10.924;2022-07-29T01:07:46;21.30;59.00
3134;DHT22;1577;49.912;10.924;2022-07-29T01:10:13;21.30;59.00
3134;DHT22;1577;49.912;10.924;2022-07-29T01:12:40;21.30;59.60
3134;DHT22;1577;49.912;10.924;2022-07-29T01:15:09;21.30;59.00
3134;DHT22;1577;49.912;10.924;2022-07-29T01:29:24;21.20;59.50
3134;DHT22;1577;49.912;10.924;2022-07-29T01:32:02;21.10;59.50
3134;DHT22;1577;49.912;10.924;2022-07-29T01:39:37;21.00;59.10
3134;DHT22;1577;49.912;10.924;2022-07-29T01:44:56;21.00;59.60
3134;DHT22;1577;49.912;10.924;2022-07-29T01:47:26;21.00;59.70
3134;DHT22;1577;49.912;10.924;2022-07-29T01:49:56;21.00;59.90
3134;DHT22;1577;49.912;10.924;2022-07-29T01:52:33;21.00;60.00
3134;DHT22;1577;49.912;10.924;2022-07-29T01:55:04;21.00;60.00
3134;DHT22;1577;49.912;10.924;2022-07-29T01:57:33;21.00;60.10
3134;DHT22;1577;49.912;10.924;2022-07-29T02:00:01;21.00;60.20
3134;DHT22;1577;49.912;10.924;2022-07-29T02:02:30;21.00;60.20
3134;DHT22;1577;49.912;10.924;2022-07-29T02:04:59;21.00;60.20
3134;DHT22;1577;49.912;10.924;2022-07-29T02:07:28;20.90;60.00
3134;DHT22;1577;49.912;10.924;2022-07-29T02:09:55;20.90;60.20
3134;DHT22;1577;49.912;10.924;2022-07-29T02:12:24;20.90;60.10
3134;DHT22;1577;49.912;10.924;2022-07-29T02:14:53;20.80;60.20
3134;DHT22;1577;49.912;10.924;2022-07-29T02:17:23;20.80;60.00
3134;DHT22;1577;49.912;10.924;2022-07-29T02:19:52;20.80;60.80
3134;DHT22;1577;49.912;10.924;2022-07-29T02:22:21;20.80;61.00
3134;DHT22;1577;49.912;10.924;2022-07-29T02:24:49;20.70;60.90
3134;DHT22;1577;49.912;10.924;2022-07-29T02:27:18;20.60;60.90
3134;DHT22;1577;49.912;10.924;2022-07-29T02:29:46;20.60;60.90
3134;DHT22;1577;49.912;10.924;2022-07-29T02:32:13;20.40;61.20
3134;DHT22;1577;49.912;10.924;2022-07-29T02:34:40;20.30;61.50
3134;DHT22;1577;49.912;10.924;2022-07-29T02:37:09;20.20;61.90
3134;DHT22;1577;49.912;10.924;2022-07-29T02:39:36;20.10;62.40
3134;DHT22;1577;49.912;10.924;2022-07-29T02:42:07;20.10;63.10
3134;DHT22;1577;49.912;10.924;2022-07-29T02:44:33;20.20;62.50
3134;DHT22;1577;49.912;10.924;2022-07-29T02:47:30;20.10;62.30
3134;DHT22;1577;49.912;10.924;2022-07-29T02:50:21;20.10;62.70
3134;DHT22;1577;49.912;10.924;2022-07-29T02:52:58;20.10;63.30
3134;DHT22;1577;49.912;10.924;2022-07-29T02:55:34;20.00;63.30
3134;DHT22;1577;49.912;10.924;2022-07-29T02:58:25;20.10;63.80
3134;DHT22;1577;49.912;10.924;2022-07-29T03:00:57;20.10;64.00
3134;DHT22;1577;49.912;10.924;2022-07-29T03:03:25;20.10;63.90
3134;DHT22;1577;49.912;10.924;2022-07-29T03:05:57;20.10;64.90
3134;DHT22;1577;49.912;10.924;2022-07-29T03:08:26;20.00;64.00
3134;DHT22;1577;49.912;10.924;2022-07-29T03:10:53;20.00;63.90
3134;DHT22;1577;49.912;10.924;2022-07-29T03:13:19;20.00;63.90
3134;DHT22;1577;49.912;10.924;2022-07-29T03:15:45;19.90;64.10
3134;DHT22;1577;49.912;10.924;2022-07-29T03:18:12;19.80;64.10
3134;DHT22;1577;49.912;10.924;2022-07-29T03:20:39;19.80;63.90
3134;DHT22;1577;49.912;10.924;2022-07-29T03:23:06;19.70;63.80
3134;DHT22;1577;49.912;10.924;2022-07-29T03:25:31;19.60;64.80
3134;DHT22;1577;49.912;10.924;2022-07-29T03:27:57;19.50;64.80
3134;DHT22;1577;49.912;10.924;2022-07-29T03:30:23;19.50;64.70
3134;DHT22;1577;49.912;10.924;2022-07-29T03:32:50;19.40;65.10
3134;DHT22;1577;49.912;10.924;2022-07-29T03:35:16;19.30;65.30
3134;DHT22;1577;49.912;10.924;2022-07-29T03:37:43;19.40;65.70
3134;DHT22;1577;49.912;10.924;2022-07-29T03:40:10;19.30;66.00
3134;DHT22;1577;49.912;10.924;2022-07-29T03:42:38;19.20;66.10
3134;DHT22;1577;49.912;10.924;2022-07-29T03:45:10;19.10;67.00
3134;DHT22;1577;49.912;10.924;2022-07-29T03:47:42;18.90;66.50
3134;DHT22;1577;49.912;10.924;2022-07-29T03:50:11;18.80;67.00
3134;DHT22;1577;49.912;10.924;2022-07-29T03:52:38;18.70;67.50
3134;DHT22;1577;49.912;10.924;2022-07-29T03:55:05;18.60;67.90
3134;DHT22;1577;49.912;10.924;2022-07-29T03:57:31;18.60;68.40
3134;DHT22;1577;49.912;10.924;2022-07-29T03:59:58;18.60;68.70
3134;DHT22;1577;49.912;10.924;2022-07-29T04:02:25;18.60;69.70
3134;DHT22;1577;49.912;10.924;2022-07-29T04:04:51;18.70;68.80
3134;DHT22;1577;49.912;10.924;2022-07-29T04:07:17;18.60;68.40
3134;DHT22;1577;49.912;10.924;2022-07-29T04:09:43;18.50;69.10
3134;DHT22;1577;49.912;10.924;2022-07-29T04:12:08;18.50;69.40
3134;DHT22;1577;49.912;10.924;2022-07-29T04:14:35;18.40;69.40
3134;DHT22;1577;49.912;10.924;2022-07-29T04:17:01;18.40;70.00
3134;DHT22;1577;49.912;10.924;2022-07-29T04:19:27;18.30;70.20
3134;DHT22;1577;49.912;10.924;2022-07-29T04:21:53;18.30;70.50
3134;DHT22;1577;49.912;10.924;2022-07-29T04:24:19;18.40;70.50
3134;DHT22;1577;49.912;10.924;2022-07-29T04:26:48;18.50;71.10
3134;DHT22;1577;49.912;10.924;2022-07-29T04:29:13;18.50;70.90
3134;DHT22;1577;49.912;10.924;2022-07-29T04:31:40;18.40;71.20
3134;DHT22;1577;49.912;10.924;2022-07-29T04:34:06;18.30;71.50
3134;DHT22;1577;49.912;10.924;2022-07-29T04:36:32;18.30;72.00
3134;DHT22;1577;49.912;10.924;2022-07-29T04:38:57;18.40;71.80
3134;DHT22;1577;49.912;10.924;2022-07-29T04:41:23;18.40;71.80
3134;DHT22;1577;49.912;10.924;2022-07-29T04:43:49;18.50;71.90
3134;DHT22;1577;49.912;10.924;2022-07-29T04:46:14;18.50;71.80
3134;DHT22;1577;49.912;10.924;2022-07-29T04:48:40;18.60;71.50
3134;DHT22;1577;49.912;10.924;2022-07-29T04:51:05;18.70;71.60
3134;DHT22;1577;49.912;10.924;2022-07-29T04:53:31;18.80;71.40
3134;DHT22;1577;49.912;10.924;2022-07-29T04:55:56;18.80;71.30
3134;DHT22;1577;49.912;10.924;2022-07-29T04:58:22;19.00;70.90
3134;DHT22;1577;49.912;10.924;2022-07-29T05:00:49;19.20;70.70
3134;DHT22;1577;49.912;10.924;2022-07-29T05:03:15;19.30;70.90
3134;DHT22;1577;49.912;10.924;2022-07-29T05:05:40;19.40;70.10
3134;DHT22;1577;49.912;10.924;2022-07-29T05:08:06;19.50;70.00
3134;DHT22;1577;49.912;10.924;2022-07-29T05:10:32;19.60;70.00
3134;DHT22;1577;49.912;10.924;2022-07-29T05:12:59;19.70;69.50
3134;DHT22;1577;49.912;10.924;2022-07-29T05:15:24;19.70;69.60
3134;DHT22;1577;49.912;10.924;2022-07-29T05:17:50;19.70;69.80
3134;DHT22;1577;49.912;10.924;2022-07-29T05:20:16;19.80;69.90
3134;DHT22;1577;49.912;10.924;2022-07-29T05:22:41;19.80;70.00
3134;DHT22;1577;49.912;10.924;2022-07-29T05:25:07;19.80;70.20
3134;DHT22;1577;49.912;10.924;2022-07-29T05:27:35;19.90;70.80
3134;DHT22;1577;49.912;10.924;2022-07-29T05:30:00;19.90;70.80
3134;DHT22;1577;49.912;10.924;2022-07-29T05:32:26;19.80;71.30
3134;DHT22;1577;49.912;10.924;2022-07-29T05:34:52;19.90;70.60
3134;DHT22;1577;49.912;10.924;2022-07-29T05:37:19;20.00;70.80
3134;DHT22;1577;49.912;10.924;2022-07-29T05:39:44;20.10;70.80
3134;DHT22;1577;49.912;10.924;2022-07-29T05:42:10;20.30;70.60
3134;DHT22;1577;49.912;10.924;2022-07-29T05:44:37;20.40;70.70
3134;DHT22;1577;49.912;10.924;2022-07-29T05:47:03;20.60;70.80
3134;DHT22;1577;49.912;10.924;2022-07-29T05:49:28;20.70;70.70
3134;DHT22;1577;49.912;10.924;2022-07-29T05:51:54;20.90;69.60
3134;DHT22;1577;49.912;10.924;2022-07-29T05:54:20;20.90;69.40
3134;DHT22;1577;49.912;10.924;2022-07-29T05:56:46;21.00;69.10
3134;DHT22;1577;49.912;10.924;2022-07-29T05:59:11;21.00;69.00
3134;DHT22;1577;49.912;10.924;2022-07-29T06:01:37;21.10;68.50
3134;DHT22;1577;49.912;10.924;2022-07-29T06:04:05;21.10;68.40
3134;DHT22;1577;49.912;10.924;2022-07-29T06:06:31;21.10;68.30
3134;DHT22;1577;49.912;10.924;2022-07-29T06:08:57;21.00;68.30
3134;DHT22;1577;49.912;10.924;2022-07-29T06:11:22;21.10;68.10
3134;DHT22;1577;49.912;10.924;2022-07-29T06:13:48;21.10;68.00
3134;DHT22;1577;49.912;10.924;2022-07-29T06:16:14;21.20;68.20
3134;DHT22;1577;49.912;10.924;2022-07-29T06:18:39;21.30;68.30
3134;DHT22;1577;49.912;10.924;2022-07-29T06:21:08;21.40;68.30
3134;DHT22;1577;49.912;10.924;2022-07-29T06:23:36;21.60;67.90
3134;DHT22;1577;49.912;10.924;2022-07-29T06:26:02;21.70;67.40
3134;DHT22;1577;49.912;10.924;2022-07-29T06:28:28;21.90;67.00
3134;DHT22;1577;49.912;10.924;2022-07-29T06:30:53;22.00;67.00
3134;DHT22;1577;49.912;10.924;2022-07-29T06:33:19;22.10;67.10
3134;DHT22;1577;49.912;10.924;2022-07-29T06:35:45;22.30;66.90
3134;DHT22;1577;49.912;10.924;2022-07-29T06:38:13;22.30;66.30
3134;DHT22;1577;49.912;10.924;2022-07-29T06:40:45;22.30;66.10
3134;DHT22;1577;49.912;10.924;2022-07-29T06:43:39;22.30;66.10
3134;DHT22;1577;49.912;10.924;2022-07-29T06:48:34;22.60;64.30
3134;DHT22;1577;49.912;10.924;2022-07-29T06:51:02;22.80;63.40
3134;DHT22;1577;49.912;10.924;2022-07-29T06:53:28;23.40;64.50
3134;DHT22;1577;49.912;10.924;2022-07-29T06:58:20;25.80;62.00
3134;DHT22;1577;49.912;10.924;2022-07-29T07:00:47;27.30;60.60
3134;DHT22;1577;49.912;10.924;2022-07-29T07:03:13;28.60;56.90
3134;DHT22;1577;49.912;10.924;2022-07-29T07:05:39;29.60;55.20
3134;DHT22;1577;49.912;10.924;2022-07-29T07:08:05;30.90;52.50
3134;DHT22;1577;49.912;10.924;2022-07-29T07:10:32;31.60;51.00
3134;DHT22;1577;49.912;10.924;2022-07-29T07:15:24;32.30;48.60
3134;DHT22;1577;49.912;10.924;2022-07-29T07:17:49;34.40;46.80
3134;DHT22;1577;49.912;10.924;2022-07-29T07:20:16;34.00;46.10
3134;DHT22;1577;49.912;10.924;2022-07-29T07:22:42;34.10;46.20
3134;DHT22;1577;49.912;10.924;2022-07-29T07:25:08;34.40;46.60
3134;DHT22;1577;49.912;10.924;2022-07-29T07:27:34;35.00;45.70
3134;DHT22;1577;49.912;10.924;2022-07-29T07:30:02;35.60;44.80
3134;DHT22;1577;49.912;10.924;2022-07-29T07:32:28;35.90;43.60
3134;DHT22;1577;49.912;10.924;2022-07-29T07:34:54;35.50;44.00
3134;DHT22;1577;49.912;10.924;2022-07-29T07:37:20;34.90;43.40
3134;DHT22;1577;49.912;10.924;2022-07-29T07:39:46;34.60;44.20
3134;DHT22;1577;49.912;10.924;2022-07-29T07:42:11;34.70;44.50
3134;DHT22;1577;49.912;10.924;2022-07-29T07:44:39;35.00;44.40
3134;DHT22;1577;49.912;10.924;2022-07-29T07:47:05;35.10;44.40
3134;DHT22;1577;49.912;10.924;2022-07-29T07:49:30;35.20;44.50
3134;DHT22;1577;49.912;10.924;2022-07-29T07:51:56;35.10;43.90
3134;DHT22;1577;49.912;10.924;2022-07-29T07:54:22;35.00;44.50
3134;DHT22;1577;49.912;10.924;2022-07-29T07:56:48;35.30;45.20
3134;DHT22;1577;49.912;10.924;2022-07-29T07:59:15;35.70;44.50
3134;DHT22;1577;49.912;10.924;2022-07-29T08:01:41;36.00;44.10
3134;DHT22;1577;49.912;10.924;2022-07-29T08:04:06;36.20;43.90
3134;DHT22;1577;49.912;10.924;2022-07-29T08:06:33;36.10;43.90
3134;DHT22;1577;49.912;10.924;2022-07-29T08:09:00;35.20;43.90
3134;DHT22;1577;49.912;10.924;2022-07-29T08:11:26;34.70;45.20
3134;DHT22;1577;49.912;10.924;2022-07-29T08:13:51;34.40;45.70
3134;DHT22;1577;49.912;10.924;2022-07-29T08:16:18;33.90;46.10
3134;DHT22;1577;49.912;10.924;2022-07-29T08:18:44;33.30;46.30
3134;DHT22;1577;49.912;10.924;2022-07-29T08:21:10;33.10;47.10
3134;DHT22;1577;49.912;10.924;2022-07-29T08:23:36;33.30;47.60
3134;DHT22;1577;49.912;10.924;2022-07-29T08:26:08;33.50;47.10
3134;DHT22;1577;49.912;10.924;2022-07-29T08:28:39;33.40;46.40
3134;DHT22;1577;49.912;10.924;2022-07-29T08:31:06;33.40;47.10
3134;DHT22;1577;49.912;10.924;2022-07-29T08:33:32;33.40;46.80
3134;DHT22;1577;49.912;10.924;2022-07-29T08:35:58;33.00;47.10
3134;DHT22;1577;49.912;10.924;2022-07-29T08:38:24;32.70;47.70
3134;DHT22;1577;49.912;10.924;2022-07-29T08:40:52;32.80;47.70
3134;DHT22;1577;49.912;10.924;2022-07-29T08:43:18;32.80;47.70
3134;DHT22;1577;49.912;10.924;2022-07-29T08:45:51;32.90;48.20
3134;DHT22;1577;49.912;10.924;2022-07-29T08:48:19;32.80;48.20
3134;DHT22;1577;49.912;10.924;2022-07-29T08:50:46;32.80;48.90
3134;DHT22;1577;49.912;10.924;2022-07-29T08:53:14;32.70;49.00
3134;DHT22;1577;49.912;10.924;2022-07-29T08:55:44;32.80;49.40
3134;DHT22;1577;49.912;10.924;2022-07-29T08:58:11;33.10;48.60
3134;DHT22;1577;49.912;10.924;2022-07-29T09:00:42;33.30;48.30
3134;DHT22;1577;49.912;10.924;2022-07-29T09:03:09;33.30;48.00
3134;DHT22;1577;49.912;10.924;2022-07-29T09:05:37;33.50;48.80
3134;DHT22;1577;49.912;10.924;2022-07-29T09:08:06;34.00;48.10
3134;DHT22;1577;49.912;10.924;2022-07-29T09:10:34;34.10;47.60
3134;DHT22;1577;49.912;10.924;2022-07-29T09:13:00;34.10;47.90
3134;DHT22;1577;49.912;10.924;2022-07-29T09:15:25;34.00;48.10
3134;DHT22;1577;49.912;10.924;2022-07-29T09:17:51;33.50;47.70
3134;DHT22;1577;49.912;10.924;2022-07-29T09:20:19;32.90;48.40
3134;DHT22;1577;49.912;10.924;2022-07-29T09:22:45;32.70;49.40
3134;DHT22;1577;49.912;10.924;2022-07-29T09:28:09;32.60;50.70
3134;DHT22;1577;49.912;10.924;2022-07-29T09:30:35;33.20;49.20
3134;DHT22;1577;49.912;10.924;2022-07-29T09:33:03;33.50;48.90
3134;DHT22;1577;49.912;10.924;2022-07-29T09:35:29;33.90;48.80
3134;DHT22;1577;49.912;10.924;2022-07-29T09:37:56;34.00;48.60
3134;DHT22;1577;49.912;10.924;2022-07-29T09:40:28;34.00;49.20
3134;DHT22;1577;49.912;10.924;2022-07-29T09:42:54;34.20;48.70
3134;DHT22;1577;49.912;10.924;2022-07-29T09:45:32;34.40;48.30
3134;DHT22;1577;49.912;10.924;2022-07-29T09:47:59;34.60;47.70
3134;DHT22;1577;49.912;10.924;2022-07-29T09:50:42;34.80;47.50
3134;DHT22;1577;49.912;10.924;2022-07-29T09:53:09;35.00;47.50
3134;DHT22;1577;49.912;10.924;2022-07-29T09:58:18;34.30;48.70
3134;DHT22;1577;49.912;10.924;2022-07-29T10:00:45;34.10;48.80
3134;DHT22;1577;49.912;10.924;2022-07-29T10:03:12;34.40;49.30
3134;DHT22;1577;49.912;10.924;2022-07-29T10:05:38;34.70;48.80
3134;DHT22;1577;49.912;10.924;2022-07-29T10:08:05;34.90;48.00
3134;DHT22;1577;49.912;10.924;2022-07-29T10:10:33;35.00;47.50
3134;DHT22;1577;49.912;10.924;2022-07-29T10:13:07;35.10;47.50
3134;DHT22;1577;49.912;10.924;2022-07-29T10:15:36;34.80;46.90
3134;DHT22;1577;49.912;10.924;2022-07-29T10:18:04;33.70;47.30
3134;DHT22;1577;49.912;10.924;2022-07-29T10:20:30;32.60;48.30
3134;DHT22;1577;49.912;10.924;2022-07-29T10:22:56;31.80;49.10
3134;DHT22;1577;49.912;10.924;2022-07-29T10:25:23;31.00;50.20
3134;DHT22;1577;49.912;10.924;2022-07-29T10:27:50;30.40;51.10
3134;DHT22;1577;49.912;10.924;2022-07-29T10:30:19;29.90;51.70
3134;DHT22;1577;49.912;10.924;2022-07-29T10:33:13;29.70;52.50
3134;DHT22;1577;49.912;10.924;2022-07-29T10:41:18;29.70;53.00
3134;DHT22;1577;49.912;10.924;2022-07-29T10:44:18;29.50;53.20
3134;DHT22;1577;49.912;10.924;2022-07-29T10:46:44;29.30;54.40
3134;DHT22;1577;49.912;10.924;2022-07-29T10:52:05;29.00;54.80
3134;DHT22;1577;49.912;10.924;2022-07-29T10:57:27;28.30;56.60
3134;DHT22;1577;49.912;10.924;2022-07-29T11:07:35;27.50;60.00
3134;DHT22;1577;49.912;10.924;2022-07-29T11:15:21;27.10;63.50
3134;DHT22;1577;49.912;10.924;2022-07-29T11:23:28;27.00;63.40
3134;DHT22;1577;49.912;10.924;2022-07-29T11:29:03;27.20;64.10
3134;DHT22;1577;49.912;10.924;2022-07-29T11:31:41;27.30;64.40
3134;DHT22;1577;49.912;10.924;2022-07-29T11:34:30;27.50;64.20
3134;DHT22;1577;49.912;10.924;2022-07-29T11:39:35;27.20;65.10
3134;DHT22;1577;49.912;10.924;2022-07-29T11:45:20;27.30;64.70
3134;DHT22;1577;49.912;10.924;2022-07-29T11:50:13;27.40;63.90
3134;DHT22;1577;49.912;10.924;2022-07-29T11:52:46;27.40;64.20
3134;DHT22;1577;49.912;10.924;2022-07-29T11:55:17;27.50;63.90
3134;DHT22;1577;49.912;10.924;2022-07-29T11:57:48;27.60;63.10
3134;DHT22;1577;49.912;10.924;2022-07-29T12:00:22;27.70;63.70
3134;DHT22;1577;49.912;10.924;2022-07-29T12:02:48;27.80;63.90
3134;DHT22;1577;49.912;10.924;2022-07-29T12:05:14;27.70;62.90
3134;DHT22;1577;49.912;10.924;2022-07-29T12:07:40;27.80;62.20
3134;DHT22;1577;49.912;10.924;2022-07-29T12:10:08;27.90;62.20
3134;DHT22;1577;49.912;10.924;2022-07-29T12:12:35;27.90;61.10
3134;DHT22;1577;49.912;10.924;2022-07-29T12:15:17;28.00;61.40
3134;DHT22;1577;49.912;10.924;2022-07-29T12:17:46;28.00;62.00
3134;DHT22;1577;49.912;10.924;2022-07-29T12:20:12;28.10;61.30
3134;DHT22;1577;49.912;10.924;2022-07-29T12:22:41;28.20;61.20
3134;DHT22;1577;49.912;10.924;2022-07-29T12:25:13;28.30;61.50
3134;DHT22;1577;49.912;10.924;2022-07-29T12:27:43;28.40;61.20
3134;DHT22;1577;49.912;10.924;2022-07-29T12:30:12;28.40;60.50
3134;DHT22;1577;49.912;10.924;2022-07-29T12:32:45;28.40;60.80
3134;DHT22;1577;49.912;10.924;2022-07-29T12:35:14;28.40;61.20
3134;DHT22;1577;49.912;10.924;2022-07-29T12:37:43;28.50;60.60
3134;DHT22;1577;49.912;10.924;2022-07-29T12:40:11;28.50;60.90
3134;DHT22;1577;49.912;10.924;2022-07-29T12:42:38;28.60;60.80
3134;DHT22;1577;49.912;10.924;2022-07-29T12:45:05;28.60;60.30
3134;DHT22;1577;49.912;10.924;2022-07-29T12:47:31;28.60;60.30
3134;DHT22;1577;49.912;10.924;2022-07-29T12:50:14;28.60;60.30
3134;DHT22;1577;49.912;10.924;2022-07-29T12:52:43;28.60;60.00
3134;DHT22;1577;49.912;10.924;2022-07-29T12:55:09;28.60;60.20
3134;DHT22;1577;49.912;10.924;2022-07-29T12:57:48;28.50;60.20
3134;DHT22;1577;49.912;10.924;2022-07-29T13:00:16;28.60;61.20
3134;DHT22;1577;49.912;10.924;2022-07-29T13:02:42;28.70;60.20
3134;DHT22;1577;49.912;10.924;2022-07-29T13:05:10;28.80;60.00
3134;DHT22;1577;49.912;10.924;2022-07-29T13:07:37;28.90;59.60
3134;DHT22;1577;49.912;10.924;2022-07-29T13:10:13;29.00;59.80
3134;DHT22;1577;49.912;10.924;2022-07-29T13:12:40;29.10;59.50
3134;DHT22;1577;49.912;10.924;2022-07-29T13:15:25;29.20;59.60
3134;DHT22;1577;49.912;10.924;2022-07-29T13:17:50;29.40;59.20
3134;DHT22;1577;49.912;10.924;2022-07-29T13:20:16;29.40;59.20
3134;DHT22;1577;49.912;10.924;2022-07-29T13:22:42;29.30;59.40
3134;DHT22;1577;49.912;10.924;2022-07-29T13:25:09;29.30;59.80
3134;DHT22;1577;49.912;10.924;2022-07-29T13:27:36;29.30;59.60
3134;DHT22;1577;49.912;10.924;2022-07-29T13:30:05;29.40;59.80
3134;DHT22;1577;49.912;10.924;2022-07-29T13:32:32;29.50;59.50
3134;DHT22;1577;49.912;10.924;2022-07-29T13:35:04;29.50;59.90
3134;DHT22;1577;49.912;10.924;2022-07-29T13:37:30;29.40;60.70
3134;DHT22;1577;49.912;10.924;2022-07-29T13:39:58;29.50;62.00
3134;DHT22;1577;49.912;10.924;2022-07-29T13:42:24;29.40;61.60
3134;DHT22;1577;49.912;10.924;2022-07-29T13:44:50;29.50;62.20
3134;DHT22;1577;49.912;10.924;2022-07-29T13:47:17;29.50;62.00
3134;DHT22;1577;49.912;10.924;2022-07-29T13:49:43;29.30;61.40
3134;DHT22;1577;49.912;10.924;2022-07-29T13:52:09;29.10;61.80
3134;DHT22;1577;49.912;10.924;2022-07-29T13:54:34;28.80;62.70
3134;DHT22;1577;49.912;10.924;2022-07-29T13:57:06;28.50;62.50
3134;DHT22;1577;49.912;10.924;2022-07-29T13:59:32;28.40;63.60
3134;DHT22;1577;49.912;10.924;2022-07-29T14:01:57;28.40;63.80
3134;DHT22;1577;49.912;10.924;2022-07-29T14:04:23;28.30;64.20
3134;DHT22;1577;49.912;10.924;2022-07-29T14:06:49;28.30;64.00
3134;DHT22;1577;49.912;10.924;2022-07-29T14:09:15;28.30;64.20
3134;DHT22;1577;49.912;10.924;2022-07-29T14:11:41;28.40;64.10
3134;DHT22;1577;49.912;10.924;2022-07-29T14:14:07;28.60;63.00
3134;DHT22;1577;49.912;10.924;2022-07-29T14:16:33;28.70;62.60
3134;DHT22;1577;49.912;10.924;2022-07-29T14:18:59;28.70;62.90
3134;DHT22;1577;49.912;10.924;2022-07-29T14:21:24;28.80;62.40
3134;DHT22;1577;49.912;10.924;2022-07-29T14:23:50;28.80;62.30
3134;DHT22;1577;49.912;10.924;2022-07-29T14:26:17;28.90;62.50
3134;DHT22;1577;49.912;10.924;2022-07-29T14:28:42;28.90;62.90
3134;DHT22;1577;49.912;10.924;2022-07-29T14:31:09;28.90;63.10
3134;DHT22;1577;49.912;10.924;2022-07-29T14:33:34;28.80;63.40
3134;DHT22;1577;49.912;10.924;2022-07-29T14:36:00;28.50;63.80
3134;DHT22;1577;49.912;10.924;2022-07-29T14:38:25;28.20;65.50
3134;DHT22;1577;49.912;10.924;2022-07-29T14:40:51;28.00;67.30
3134;DHT22;1577;49.912;10.924;2022-07-29T14:43:17;27.90;67.80
3134;DHT22;1577;49.912;10.924;2022-07-29T14:45:42;27.80;68.50
3134;DHT22;1577;49.912;10.924;2022-07-29T14:48:08;27.80;66.90
3134;DHT22;1577;49.912;10.924;2022-07-29T14:50:33;27.70;65.70
3134;DHT22;1577;49.912;10.924;2022-07-29T14:53:00;27.60;66.20
3134;DHT22;1577;49.912;10.924;2022-07-29T14:55:26;27.60;67.90
3134;DHT22;1577;49.912;10.924;2022-07-29T14:57:51;27.60;68.60
3134;DHT22;1577;49.912;10.924;2022-07-29T15:00:17;27.50;70.50
3134;DHT22;1577;49.912;10.924;2022-07-29T15:02:43;27.40;71.10
3134;DHT22;1577;49.912;10.924;2022-07-29T15:05:09;27.20;71.10
3134;DHT22;1577;49.912;10.924;2022-07-29T15:07:34;27.00;71.00
3134;DHT22;1577;49.912;10.924;2022-07-29T15:10:00;26.80;69.90
3134;DHT22;1577;49.912;10.924;2022-07-29T15:12:26;26.70;70.60
3134;DHT22;1577;49.912;10.924;2022-07-29T15:14:51;26.50;70.90
3134;DHT22;1577;49.912;10.924;2022-07-29T15:17:17;26.40;71.70
3134;DHT22;1577;49.912;10.924;2022-07-29T15:19:42;26.20;72.60
3134;DHT22;1577;49.912;10.924;2022-07-29T15:22:08;26.00;73.60
3134;DHT22;1577;49.912;10.924;2022-07-29T15:24:34;25.90;73.90
3134;DHT22;1577;49.912;10.924;2022-07-29T15:29:25;25.10;99.90
3134;DHT22;1577;49.912;10.924;2022-07-29T15:31:51;24.80;75.00
3134;DHT22;1577;49.912;10.924;2022-07-29T15:34:17;24.40;76.00
3134;DHT22;1577;49.912;10.924;2022-07-29T15:36:42;24.00;78.00
3134;DHT22;1577;49.912;10.924;2022-07-29T15:39:08;23.60;79.70
3134;DHT22;1577;49.912;10.924;2022-07-29T15:51:43;22.20;99.90
3134;DHT22;1577;49.912;10.924;2022-07-29T15:54:08;22.20;99.70
3134;DHT22;1577;49.912;10.924;2022-07-29T15:56:34;21.80;99.90
3134;DHT22;1577;49.912;10.924;2022-07-29T15:59:00;21.50;99.90
3134;DHT22;1577;49.912;10.924;2022-07-29T16:01:25;21.20;99.90
3134;DHT22;1577;49.912;10.924;2022-07-29T16:03:51;20.80;99.90
3134;DHT22;1577;49.912;10.924;2022-07-29T16:06:17;20.40;99.90
3134;DHT22;1577;49.912;10.924;2022-07-29T16:08:42;20.30;99.90
3134;DHT22;1577;49.912;10.924;2022-07-29T16:11:08;20.00;99.90
3134;DHT22;1577;49.912;10.924;2022-07-29T16:13:34;19.90;99.90
3134;DHT22;1577;49.912;10.924;2022-07-29T16:16:00;19.80;99.90
3134;DHT22;1577;49.912;10.924;2022-07-29T16:18:26;20.00;99.90
3134;DHT22;1577;49.912;10.924;2022-07-29T16:20:52;20.10;99.90
3134;DHT22;1577;49.912;10.924;2022-07-29T16:23:17;20.00;99.90
3134;DHT22;1577;49.912;10.924;2022-07-29T16:25:43;20.10;99.90
3134;DHT22;1577;49.912;10.924;2022-07-29T16:28:09;20.30;99.90
3134;DHT22;1577;49.912;10.924;2022-07-29T16:30:35;20.30;99.90
3134;DHT22;1577;49.912;10.924;2022-07-29T16:33:01;20.20;99.90
3134;DHT22;1577;49.912;10.924;2022-07-29T16:35:28;20.10;99.90
3134;DHT22;1577;49.912;10.924;2022-07-29T16:37:55;20.00;99.90
3134;DHT22;1577;49.912;10.924;2022-07-29T16:40:21;19.90;99.90
3134;DHT22;1577;49.912;10.924;2022-07-29T16:42:47;19.90;99.90
3134;DHT22;1577;49.912;10.924;2022-07-29T16:45:13;19.70;99.90
3134;DHT22;1577;49.912;10.924;2022-07-29T16:47:38;19.60;99.90
3134;DHT22;1577;49.912;10.924;2022-07-29T16:50:04;19.60;99.90
3134;DHT22;1577;49.912;10.924;2022-07-29T16:52:30;19.50;99.90
3134;DHT22;1577;49.912;10.924;2022-07-29T16:54:55;19.50;99.90
3134;DHT22;1577;49.912;10.924;2022-07-29T16:57:21;19.50;99.90
3134;DHT22;1577;49.912;10.924;2022-07-29T16:59:47;19.60;99.90
3134;DHT22;1577;49.912;10.924;2022-07-29T17:02:15;19.70;99.90
3134;DHT22;1577;49.912;10.924;2022-07-29T17:04:40;19.70;99.90
3134;DHT22;1577;49.912;10.924;2022-07-29T17:07:06;19.80;99.90
3134;DHT22;1577;49.912;10.924;2022-07-29T17:09:32;19.80;99.90
3134;DHT22;1577;49.912;10.924;2022-07-29T17:11:58;19.60;99.90
3134;DHT22;1577;49.912;10.924;2022-07-29T17:14:27;19.50;99.90